sensor_id;sensor_type;location;lat;lon;timestamp;temperature;humidity
59660;DHT22;45534;52.690;6.268;2024-03-08T00:00:09;2.30;99.90
59660;DHT22;45534;52.690;6.268;2024-03-08T00:02:38;2.30;99.90
59660;DHT22;45534;52.690;6.268;2024-03-08T00:05:05;2.30;99.90
59660;DHT22;45534;52.690;6.268;2024-03-08T00:07:31;2.30;99.90
59660;DHT22;45534;52.690;6.268;2024-03-08T00:09:58;2.30;99.90
59660;DHT22;45534;52.690;6.268;2024-03-08T00:12:24;2.30;99.90
59660;DHT22;45534;52.690;6.268;2024-03-08T00:14:53;2.30;99.90
59660;DHT22;45534;52.690;6.268;2024-03-08T00:17:20;2.30;99.90
59660;DHT22;45534;52.690;6.268;2024-03-08T00:19:48;2.20;99.90
59660;DHT22;45534;52.690;6.268;2024-03-08T00:22:16;2.30;99.90
59660;DHT22;45534;52.690;6.268;2024-03-08T00:24:42;2.30;99.90
59660;DHT22;45534;52.690;6.268;2024-03-08T00:27:08;2.30;99.90
59660;DHT22;45534;52.690;6.268;2024-03-08T00:29:34;2.30;99.90
59660;DHT22;45534;52.690;6.268;2024-03-08T00:32:00;2.30;99.90
59660;DHT22;45534;52.690;6.268;2024-03-08T00:34:26;2.30;99.90
59660;DHT22;45534;52.690;6.268;2024-03-08T00:36:52;2.30;99.90
59660;DHT22;45534;52.690;6.268;2024-03-08T00:39:18;2.40;99.90
59660;DHT22;45534;52.690;6.268;2024-03-08T00:41:50;2.40;99.90
59660;DHT22;45534;52.690;6.268;2024-03-08T00:44:15;2.40;99.90
59660;DHT22;45534;52.690;6.268;2024-03-08T00:46:41;2.40;99.90
59660;DHT22;45534;52.690;6.268;2024-03-08T00:49:08;2.40;99.90
59660;DHT22;45534;52.690;6.268;2024-03-08T00:51:33;2.40;99.90
59660;DHT22;45534;52.690;6.268;2024-03-08T00:53:59;2.40;99.90
59660;DHT22;45534;52.690;6.268;2024-03-08T00:56:28;2.40;99.90
59660;DHT22;45534;52.690;6.268;2024-03-08T00:58:54;2.40;99.90
59660;DHT22;45534;52.690;6.268;2024-03-08T01:01:19;2.40;99.90
59660;DHT22;45534;52.690;6.268;2024-03-08T01:03:45;2.30;99.90
59660;DHT22;45534;52.690;6.268;2024-03-08T01:06:11;2.30;99.90
59660;DHT22;45534;52.690;6.268;2024-03-08T01:08:37;2.30;99.90
59660;DHT22;45534;52.690;6.268;2024-03-08T01:11:08;2.30;99.90
59660;DHT22;45534;52.690;6.268;2024-03-08T01:13:34;2.30;99.90
59660;DHT22;45534;52.690;6.268;2024-03-08T01:16:00;2.30;99.90
59660;DHT22;45534;52.690;6.268;2024-03-08T01:18:26;2.30;99.90
59660;DHT22;45534;52.690;6.268;2024-03-08T01:20:52;2.20;99.90
59660;DHT22;45534;52.690;6.268;2024-03-08T01:23:17;2.30;99.90
59660;DHT22;45534;52.690;6.268;2024-03-08T01:25:43;2.30;99.90
59660;DHT22;45534;52.690;6.268;2024-03-08T01:28:09;2.20;99.90
59660;DHT22;45534;52.690;6.268;2024-03-08T01:30:35;2.20;99.90
59660;DHT22;45534;52.690;6.268;2024-03-08T01:33:03;2.20;99.90
59660;DHT22;45534;52.690;6.268;2024-03-08T01:35:32;2.20;99.90
59660;DHT22;45534;52.690;6.268;2024-03-08T01:37:57;2.20;99.90
59660;DHT22;45534;52.690;6.268;2024-03-08T01:40:25;2.20;99.90
59660;DHT22;45534;52.690;6.268;2024-03-08T01:42:51;2.10;99.90
59660;DHT22;45534;52.690;6.268;2024-03-08T01:45:18;2.10;99.90
59660;DHT22;45534;52.690;6.268;2024-03-08T01:47:44;2.10;99.90
59660;DHT22;45534;52.690;6.268;2024-03-08T01:50:13;2.10;99.90
59660;DHT22;45534;52.690;6.268;2024-03-08T01:52:39;2.10;99.90
59660;DHT22;45534;52.690;6.268;2024-03-08T01:55:06;2.10;99.90
59660;DHT22;45534;52.690;6.268;2024-03-08T01:57:34;2.00;99.90
59660;DHT22;45534;52.690;6.268;2024-03-08T02:00:01;2.00;99.90
59660;DHT22;45534;52.690;6.268;2024-03-08T02:02:32;2.00;99.90
59660;DHT22;45534;52.690;6.268;2024-03-08T02:04:58;2.00;99.90
59660;DHT22;45534;52.690;6.268;2024-03-08T02:07:24;2.00;99.90
59660;DHT22;45534;52.690;6.268;2024-03-08T02:09:50;2.00;99.90
59660;DHT22;45534;52.690;6.268;2024-03-08T02:12:16;2.00;99.90
59660;DHT22;45534;52.690;6.268;2024-03-08T02:14:42;2.00;99.90
59660;DHT22;45534;52.690;6.268;2024-03-08T02:17:09;2.00;99.90
59660;DHT22;45534;52.690;6.268;2024-03-08T02:19:37;1.90;99.90
59660;DHT22;45534;52.690;6.268;2024-03-08T02:22:03;1.90;99.90
59660;DHT22;45534;52.690;6.268;2024-03-08T02:24:30;1.90;99.90
59660;DHT22;45534;52.690;6.268;2024-03-08T02:26:56;1.90;99.90
59660;DHT22;45534;52.690;6.268;2024-03-08T02:29:22;1.90;99.90
59660;DHT22;45534;52.690;6.268;2024-03-08T02:31:51;1.90;99.90
59660;DHT22;45534;52.690;6.268;2024-03-08T02:34:17;1.80;99.90
59660;DHT22;45534;52.690;6.268;2024-03-08T02:36:42;1.80;99.90
59660;DHT22;45534;52.690;6.268;2024-03-08T02:39:08;1.80;99.90
59660;DHT22;45534;52.690;6.268;2024-03-08T02:41:36;1.80;99.90
59660;DHT22;45534;52.690;6.268;2024-03-08T02:44:02;1.80;99.90
59660;DHT22;45534;52.690;6.268;2024-03-08T02:46:28;1.80;99.90
59660;DHT22;45534;52.690;6.268;2024-03-08T02:48:53;1.80;99.90
59660;DHT22;45534;52.690;6.268;2024-03-08T02:51:22;1.70;99.90
59660;DHT22;45534;52.690;6.268;2024-03-08T02:53:48;1.70;99.90
59660;DHT22;45534;52.690;6.268;2024-03-08T02:56:17;1.70;99.90
59660;DHT22;45534;52.690;6.268;2024-03-08T02:58:43;1.70;99.90
59660;DHT22;45534;52.690;6.268;2024-03-08T03:01:14;1.70;99.90
59660;DHT22;45534;52.690;6.268;2024-03-08T03:03:41;1.70;99.90
59660;DHT22;45534;52.690;6.268;2024-03-08T03:06:07;1.70;99.90
59660;DHT22;45534;52.690;6.268;2024-03-08T03:08:33;1.70;99.90
59660;DHT22;45534;52.690;6.268;2024-03-08T03:10:59;1.70;99.90
59660;DHT22;45534;52.690;6.268;2024-03-08T03:13:24;1.70;99.90
59660;DHT22;45534;52.690;6.268;2024-03-08T03:15:50;1.70;99.90
59660;DHT22;45534;52.690;6.268;2024-03-08T03:18:17;1.70;99.90
59660;DHT22;45534;52.690;6.268;2024-03-08T03:20:46;1.60;99.90
59660;DHT22;45534;52.690;6.268;2024-03-08T03:23:12;1.60;99.90
59660;DHT22;45534;52.690;6.268;2024-03-08T03:25:39;1.60;99.90
59660;DHT22;45534;52.690;6.268;2024-03-08T03:28:07;1.60;99.90
59660;DHT22;45534;52.690;6.268;2024-03-08T03:30:33;1.60;99.90
59660;DHT22;45534;52.690;6.268;2024-03-08T03:33:02;1.60;99.90
59660;DHT22;45534;52.690;6.268;2024-03-08T03:35:32;1.60;99.90
59660;DHT22;45534;52.690;6.268;2024-03-08T03:37:58;1.60;99.90
59660;DHT22;45534;52.690;6.268;2024-03-08T03:40:33;1.60;99.90
59660;DHT22;45534;52.690;6.268;2024-03-08T03:42:59;1.50;99.90
59660;DHT22;45534;52.690;6.268;2024-03-08T03:45:25;1.50;99.90
59660;DHT22;45534;52.690;6.268;2024-03-08T03:47:51;1.50;99.90
59660;DHT22;45534;52.690;6.268;2024-03-08T03:50:20;1.50;99.90
59660;DHT22;45534;52.690;6.268;2024-03-08T03:52:47;1.50;99.90
59660;DHT22;45534;52.690;6.268;2024-03-08T03:55:14;1.50;99.90
59660;DHT22;45534;52.690;6.268;2024-03-08T03:57:40;1.50;99.90
59660;DHT22;45534;52.690;6.268;2024-03-08T04:00:06;1.50;99.90
59660;DHT22;45534;52.690;6.268;2024-03-08T04:02:37;1.50;99.90
59660;DHT22;45534;52.690;6.268;2024-03-08T04:05:09;1.40;99.90
59660;DHT22;45534;52.690;6.268;2024-03-08T04:07:36;1.40;99.90
59660;DHT22;45534;52.690;6.268;2024-03-08T04:10:03;1.40;99.90
59660;DHT22;45534;52.690;6.268;2024-03-08T04:12:29;1.40;99.90
59660;DHT22;45534;52.690;6.268;2024-03-08T04:14:55;1.40;99.90
59660;DHT22;45534;52.690;6.268;2024-03-08T04:17:21;1.40;99.90
59660;DHT22;45534;52.690;6.268;2024-03-08T04:19:47;1.30;99.90
59660;DHT22;45534;52.690;6.268;2024-03-08T04:22:14;1.30;99.90
59660;DHT22;45534;52.690;6.268;2024-03-08T04:24:40;1.30;99.90
59660;DHT22;45534;52.690;6.268;2024-03-08T04:27:06;1.30;99.90
59660;DHT22;45534;52.690;6.268;2024-03-08T04:29:35;1.30;99.90
59660;DHT22;45534;52.690;6.268;2024-03-08T04:32:03;1.30;99.90
59660;DHT22;45534;52.690;6.268;2024-03-08T04:34:30;1.30;99.90
59660;DHT22;45534;52.690;6.268;2024-03-08T04:36:59;1.30;99.90
59660;DHT22;45534;52.690;6.268;2024-03-08T04:39:25;1.20;99.90
59660;DHT22;45534;52.690;6.268;2024-03-08T04:41:54;1.20;99.90
59660;DHT22;45534;52.690;6.268;2024-03-08T04:44:23;1.20;99.90
59660;DHT22;45534;52.690;6.268;2024-03-08T04:46:50;1.20;99.90
59660;DHT22;45534;52.690;6.268;2024-03-08T04:49:15;1.20;99.90
59660;DHT22;45534;52.690;6.268;2024-03-08T04:51:41;1.10;99.90
59660;DHT22;45534;52.690;6.268;2024-03-08T04:54:07;1.10;99.90
59660;DHT22;45534;52.690;6.268;2024-03-08T04:56:32;1.10;99.90
59660;DHT22;45534;52.690;6.268;2024-03-08T04:58:59;1.10;99.90
59660;DHT22;45534;52.690;6.268;2024-03-08T05:01:24;1.10;99.90
59660;DHT22;45534;52.690;6.268;2024-03-08T05:03:50;1.00;99.90
59660;DHT22;45534;52.690;6.268;2024-03-08T05:06:16;1.10;99.90
59660;DHT22;45534;52.690;6.268;2024-03-08T05:08:42;1.00;99.90
59660;DHT22;45534;52.690;6.268;2024-03-08T05:11:08;1.00;99.90
59660;DHT22;45534;52.690;6.268;2024-03-08T05:13:34;1.00;99.90
59660;DHT22;45534;52.690;6.268;2024-03-08T05:16:00;1.00;99.90
59660;DHT22;45534;52.690;6.268;2024-03-08T05:18:26;1.00;99.90
59660;DHT22;45534;52.690;6.268;2024-03-08T05:20:57;1.00;99.90
59660;DHT22;45534;52.690;6.268;2024-03-08T05:23:23;1.00;99.90
59660;DHT22;45534;52.690;6.268;2024-03-08T05:25:49;0.90;99.90
59660;DHT22;45534;52.690;6.268;2024-03-08T05:28:14;1.00;99.90
59660;DHT22;45534;52.690;6.268;2024-03-08T05:30:40;0.90;99.90
59660;DHT22;45534;52.690;6.268;2024-03-08T05:33:06;0.90;99.90
59660;DHT22;45534;52.690;6.268;2024-03-08T05:35:36;0.90;99.90
59660;DHT22;45534;52.690;6.268;2024-03-08T05:38:02;0.90;99.90
59660;DHT22;45534;52.690;6.268;2024-03-08T05:40:27;0.80;99.90
59660;DHT22;45534;52.690;6.268;2024-03-08T05:42:58;0.80;99.90
59660;DHT22;45534;52.690;6.268;2024-03-08T05:45:24;0.80;99.90
59660;DHT22;45534;52.690;6.268;2024-03-08T05:47:51;0.80;99.90
59660;DHT22;45534;52.690;6.268;2024-03-08T05:50:17;0.80;99.90
59660;DHT22;45534;52.690;6.268;2024-03-08T05:52:43;0.80;99.90
59660;DHT22;45534;52.690;6.268;2024-03-08T05:55:09;0.80;99.90
59660;DHT22;45534;52.690;6.268;2024-03-08T05:57:36;0.80;99.90
59660;DHT22;45534;52.690;6.268;2024-03-08T06:00:06;0.80;99.90
59660;DHT22;45534;52.690;6.268;2024-03-08T06:02:31;0.80;99.90
59660;DHT22;45534;52.690;6.268;2024-03-08T06:04:58;0.80;99.90
59660;DHT22;45534;52.690;6.268;2024-03-08T06:07:24;0.80;99.90
59660;DHT22;45534;52.690;6.268;2024-03-08T06:09:49;0.80;99.90
59660;DHT22;45534;52.690;6.268;2024-03-08T06:12:15;0.80;99.90
59660;DHT22;45534;52.690;6.268;2024-03-08T06:14:47;0.80;99.90
59660;DHT22;45534;52.690;6.268;2024-03-08T06:17:12;0.80;99.90
59660;DHT22;45534;52.690;6.268;2024-03-08T06:19:38;0.80;99.90
59660;DHT22;45534;52.690;6.268;2024-03-08T06:22:04;0.80;99.90
59660;DHT22;45534;52.690;6.268;2024-03-08T06:24:34;0.80;99.90
59660;DHT22;45534;52.690;6.268;2024-03-08T06:27:02;0.80;99.90
59660;DHT22;45534;52.690;6.268;2024-03-08T06:29:27;0.80;99.90
59660;DHT22;45534;52.690;6.268;2024-03-08T06:31:53;0.80;99.90
59660;DHT22;45534;52.690;6.268;2024-03-08T06:34:19;0.80;99.90
59660;DHT22;45534;52.690;6.268;2024-03-08T06:36:45;0.80;99.90
59660;DHT22;45534;52.690;6.268;2024-03-08T06:39:10;0.80;99.90
59660;DHT22;45534;52.690;6.268;2024-03-08T06:41:37;0.90;99.90
59660;DHT22;45534;52.690;6.268;2024-03-08T06:44:06;0.90;99.90
59660;DHT22;45534;52.690;6.268;2024-03-08T06:46:33;0.90;99.90
59660;DHT22;45534;52.690;6.268;2024-03-08T06:48:59;1.00;99.90
59660;DHT22;45534;52.690;6.268;2024-03-08T06:51:25;1.00;99.90
59660;DHT22;45534;52.690;6.268;2024-03-08T06:53:50;1.00;99.90
59660;DHT22;45534;52.690;6.268;2024-03-08T06:56:18;1.00;99.90
59660;DHT22;45534;52.690;6.268;2024-03-08T06:58:45;1.10;99.90
59660;DHT22;45534;52.690;6.268;2024-03-08T07:01:10;1.10;99.90
59660;DHT22;45534;52.690;6.268;2024-03-08T07:03:41;1.20;99.90
59660;DHT22;45534;52.690;6.268;2024-03-08T07:06:15;1.20;99.90
59660;DHT22;45534;52.690;6.268;2024-03-08T07:08:42;1.20;99.90
59660;DHT22;45534;52.690;6.268;2024-03-08T07:11:08;1.20;99.90
59660;DHT22;45534;52.690;6.268;2024-03-08T07:13:34;1.30;99.90
59660;DHT22;45534;52.690;6.268;2024-03-08T07:16:00;1.40;99.90
59660;DHT22;45534;52.690;6.268;2024-03-08T07:18:26;1.40;99.90
59660;DHT22;45534;52.690;6.268;2024-03-08T07:20:53;1.40;99.90
59660;DHT22;45534;52.690;6.268;2024-03-08T07:23:19;1.40;99.90
59660;DHT22;45534;52.690;6.268;2024-03-08T07:26:03;1.50;99.90
59660;DHT22;45534;52.690;6.268;2024-03-08T07:28:28;1.50;99.90
59660;DHT22;45534;52.690;6.268;2024-03-08T07:30:57;1.60;99.90
59660;DHT22;45534;52.690;6.268;2024-03-08T07:33:41;1.60;99.90
59660;DHT22;45534;52.690;6.268;2024-03-08T07:36:07;1.60;99.90
59660;DHT22;45534;52.690;6.268;2024-03-08T07:38:34;1.70;99.90
59660;DHT22;45534;52.690;6.268;2024-03-08T07:41:00;1.70;99.90
59660;DHT22;45534;52.690;6.268;2024-03-08T07:43:29;1.80;99.90
59660;DHT22;45534;52.690;6.268;2024-03-08T07:45:54;1.80;99.90
59660;DHT22;45534;52.690;6.268;2024-03-08T07:48:20;1.90;99.90
59660;DHT22;45534;52.690;6.268;2024-03-08T07:50:46;2.00;99.90
59660;DHT22;45534;52.690;6.268;2024-03-08T07:53:15;2.00;99.90
59660;DHT22;45534;52.690;6.268;2024-03-08T07:55:41;2.00;99.90
59660;DHT22;45534;52.690;6.268;2024-03-08T07:58:08;2.10;99.90
59660;DHT22;45534;52.690;6.268;2024-03-08T08:00:36;2.10;99.90
59660;DHT22;45534;52.690;6.268;2024-03-08T08:03:03;2.20;99.90
59660;DHT22;45534;52.690;6.268;2024-03-08T08:05:29;2.20;99.90
59660;DHT22;45534;52.690;6.268;2024-03-08T08:07:54;2.30;99.90
59660;DHT22;45534;52.690;6.268;2024-03-08T08:10:21;2.30;99.90
59660;DHT22;45534;52.690;6.268;2024-03-08T08:12:48;2.40;99.90
59660;DHT22;45534;52.690;6.268;2024-03-08T08:15:14;2.40;99.90
59660;DHT22;45534;52.690;6.268;2024-03-08T08:17:41;2.50;99.90
59660;DHT22;45534;52.690;6.268;2024-03-08T08:20:09;2.60;99.90
59660;DHT22;45534;52.690;6.268;2024-03-08T08:22:34;2.60;99.90
59660;DHT22;45534;52.690;6.268;2024-03-08T08:25:03;2.70;99.90
59660;DHT22;45534;52.690;6.268;2024-03-08T08:27:29;2.80;99.90
59660;DHT22;45534;52.690;6.268;2024-03-08T08:29:55;2.80;99.90
59660;DHT22;45534;52.690;6.268;2024-03-08T08:32:21;2.90;99.90
59660;DHT22;45534;52.690;6.268;2024-03-08T08:34:47;3.00;99.90
59660;DHT22;45534;52.690;6.268;2024-03-08T08:37:13;3.00;99.90
59660;DHT22;45534;52.690;6.268;2024-03-08T08:39:39;3.10;99.90
59660;DHT22;45534;52.690;6.268;2024-03-08T08:42:05;3.20;99.90
59660;DHT22;45534;52.690;6.268;2024-03-08T08:44:32;3.30;99.90
59660;DHT22;45534;52.690;6.268;2024-03-08T08:46:58;3.40;99.90
59660;DHT22;45534;52.690;6.268;2024-03-08T08:49:24;3.40;99.90
59660;DHT22;45534;52.690;6.268;2024-03-08T08:51:51;3.50;99.90
59660;DHT22;45534;52.690;6.268;2024-03-08T08:54:17;3.60;99.90
59660;DHT22;45534;52.690;6.268;2024-03-08T08:56:44;3.70;99.90
59660;DHT22;45534;52.690;6.268;2024-03-08T08:59:10;3.80;99.90
59660;DHT22;45534;52.690;6.268;2024-03-08T09:01:39;3.80;99.90
59660;DHT22;45534;52.690;6.268;2024-03-08T09:04:05;3.90;99.90
59660;DHT22;45534;52.690;6.268;2024-03-08T09:06:31;4.00;99.90
59660;DHT22;45534;52.690;6.268;2024-03-08T09:08:57;4.00;99.90
59660;DHT22;45534;52.690;6.268;2024-03-08T09:11:23;4.10;99.90
59660;DHT22;45534;52.690;6.268;2024-03-08T09:13:50;4.20;99.90
59660;DHT22;45534;52.690;6.268;2024-03-08T09:16:16;4.20;99.90
59660;DHT22;45534;52.690;6.268;2024-03-08T09:18:42;4.30;99.90
59660;DHT22;45534;52.690;6.268;2024-03-08T09:21:08;4.40;99.90
59660;DHT22;45534;52.690;6.268;2024-03-08T09:23:36;4.50;99.90
59660;DHT22;45534;52.690;6.268;2024-03-08T09:26:02;4.50;99.90
59660;DHT22;45534;52.690;6.268;2024-03-08T09:28:29;4.60;99.90
59660;DHT22;45534;52.690;6.268;2024-03-08T09:30:55;4.60;99.90
59660;DHT22;45534;52.690;6.268;2024-03-08T09:33:21;4.70;99.90
59660;DHT22;45534;52.690;6.268;2024-03-08T09:35:47;4.70;99.90
59660;DHT22;45534;52.690;6.268;2024-03-08T09:38:14;4.80;99.90
59660;DHT22;45534;52.690;6.268;2024-03-08T09:40:43;4.80;99.90
59660;DHT22;45534;52.690;6.268;2024-03-08T09:43:09;4.90;99.90
59660;DHT22;45534;52.690;6.268;2024-03-08T09:45:37;4.90;99.90
59660;DHT22;45534;52.690;6.268;2024-03-08T09:48:10;5.00;99.90
59660;DHT22;45534;52.690;6.268;2024-03-08T09:50:40;5.10;99.90
59660;DHT22;45534;52.690;6.268;2024-03-08T09:53:07;5.10;99.90
59660;DHT22;45534;52.690;6.268;2024-03-08T09:55:38;5.20;99.90
59660;DHT22;45534;52.690;6.268;2024-03-08T09:58:15;5.30;99.90
59660;DHT22;45534;52.690;6.268;2024-03-08T10:00:47;5.40;99.90
59660;DHT22;45534;52.690;6.268;2024-03-08T10:03:13;5.60;99.90
59660;DHT22;45534;52.690;6.268;2024-03-08T10:05:41;5.60;99.90
59660;DHT22;45534;52.690;6.268;2024-03-08T10:08:07;5.70;99.90
59660;DHT22;45534;52.690;6.268;2024-03-08T10:10:37;5.90;99.90
59660;DHT22;45534;52.690;6.268;2024-03-08T10:13:09;5.90;99.90
59660;DHT22;45534;52.690;6.268;2024-03-08T10:15:36;6.00;99.90
59660;DHT22;45534;52.690;6.268;2024-03-08T10:18:02;6.10;99.90
59660;DHT22;45534;52.690;6.268;2024-03-08T10:20:30;6.20;99.90
59660;DHT22;45534;52.690;6.268;2024-03-08T10:23:06;6.30;99.90
59660;DHT22;45534;52.690;6.268;2024-03-08T10:25:32;6.40;99.90
59660;DHT22;45534;52.690;6.268;2024-03-08T10:27:58;6.40;99.90
59660;DHT22;45534;52.690;6.268;2024-03-08T10:30:24;6.40;99.90
59660;DHT22;45534;52.690;6.268;2024-03-08T10:32:51;6.50;99.90
59660;DHT22;45534;52.690;6.268;2024-03-08T10:35:17;6.50;99.90
59660;DHT22;45534;52.690;6.268;2024-03-08T10:37:48;6.60;99.90
59660;DHT22;45534;52.690;6.268;2024-03-08T10:40:19;6.70;99.90
59660;DHT22;45534;52.690;6.268;2024-03-08T10:42:58;6.70;99.90
59660;DHT22;45534;52.690;6.268;2024-03-08T10:48:29;6.80;99.90
59660;DHT22;45534;52.690;6.268;2024-03-08T10:51:04;6.80;99.90
59660;DHT22;45534;52.690;6.268;2024-03-08T10:53:30;6.80;99.90
59660;DHT22;45534;52.690;6.268;2024-03-08T10:55:59;6.90;99.90
59660;DHT22;45534;52.690;6.268;2024-03-08T10:58:26;7.00;99.90
59660;DHT22;45534;52.690;6.268;2024-03-08T11:00:54;7.20;99.90
59660;DHT22;45534;52.690;6.268;2024-03-08T11:06:18;7.70;99.90
59660;DHT22;45534;52.690;6.268;2024-03-08T11:08:48;7.70;99.90
59660;DHT22;45534;52.690;6.268;2024-03-08T11:13:56;8.10;99.90
59660;DHT22;45534;52.690;6.268;2024-03-08T11:19:22;8.50;99.90
59660;DHT22;45534;52.690;6.268;2024-03-08T11:21:57;8.70;99.90
59660;DHT22;45534;52.690;6.268;2024-03-08T11:24:23;8.90;99.90
59660;DHT22;45534;52.690;6.268;2024-03-08T11:26:49;9.10;99.90
59660;DHT22;45534;52.690;6.268;2024-03-08T11:32:15;9.50;99.90
59660;DHT22;45534;52.690;6.268;2024-03-08T11:34:43;9.50;99.90
59660;DHT22;45534;52.690;6.268;2024-03-08T11:37:17;9.50;99.90
59660;DHT22;45534;52.690;6.268;2024-03-08T11:39:47;9.60;99.90
59660;DHT22;45534;52.690;6.268;2024-03-08T11:42:17;9.60;99.90
59660;DHT22;45534;52.690;6.268;2024-03-08T11:44:46;9.40;99.90
59660;DHT22;45534;52.690;6.268;2024-03-08T11:47:13;9.30;99.90
59660;DHT22;45534;52.690;6.268;2024-03-08T11:49:40;9.40;99.90
59660;DHT22;45534;52.690;6.268;2024-03-08T11:52:12;9.40;99.90
59660;DHT22;45534;52.690;6.268;2024-03-08T11:54:39;9.50;99.90
59660;DHT22;45534;52.690;6.268;2024-03-08T11:57:05;9.60;99.90
59660;DHT22;45534;52.690;6.268;2024-03-08T11:59:31;9.70;99.90
59660;DHT22;45534;52.690;6.268;2024-03-08T12:02:03;9.80;99.90
59660;DHT22;45534;52.690;6.268;2024-03-08T12:04:29;9.90;99.90
59660;DHT22;45534;52.690;6.268;2024-03-08T12:06:59;10.00;99.90
59660;DHT22;45534;52.690;6.268;2024-03-08T12:09:31;10.20;99.90
59660;DHT22;45534;52.690;6.268;2024-03-08T12:11:58;10.30;99.90
59660;DHT22;45534;52.690;6.268;2024-03-08T12:14:24;10.40;99.90
59660;DHT22;45534;52.690;6.268;2024-03-08T12:16:51;10.50;99.90
59660;DHT22;45534;52.690;6.268;2024-03-08T12:19:18;10.30;99.90
59660;DHT22;45534;52.690;6.268;2024-03-08T12:21:43;10.30;99.90
59660;DHT22;45534;52.690;6.268;2024-03-08T12:24:17;10.50;99.90
59660;DHT22;45534;52.690;6.268;2024-03-08T12:26:47;10.70;99.90
59660;DHT22;45534;52.690;6.268;2024-03-08T12:29:27;10.80;99.90
59660;DHT22;45534;52.690;6.268;2024-03-08T12:31:58;10.80;99.90
59660;DHT22;45534;52.690;6.268;2024-03-08T12:34:26;10.90;99.90
59660;DHT22;45534;52.690;6.268;2024-03-08T12:36:58;11.00;99.90
59660;DHT22;45534;52.690;6.268;2024-03-08T12:39:24;11.20;99.90
59660;DHT22;45534;52.690;6.268;2024-03-08T12:41:53;11.30;99.90
59660;DHT22;45534;52.690;6.268;2024-03-08T12:44:20;11.40;99.90
59660;DHT22;45534;52.690;6.268;2024-03-08T12:46:47;11.40;99.90
59660;DHT22;45534;52.690;6.268;2024-03-08T12:49:14;11.50;99.90
59660;DHT22;45534;52.690;6.268;2024-03-08T12:51:43;11.60;99.90
59660;DHT22;45534;52.690;6.268;2024-03-08T12:54:09;11.80;99.90
59660;DHT22;45534;52.690;6.268;2024-03-08T12:56:35;12.00;99.90
59660;DHT22;45534;52.690;6.268;2024-03-08T12:59:07;12.00;99.90
59660;DHT22;45534;52.690;6.268;2024-03-08T13:01:33;12.20;99.90
59660;DHT22;45534;52.690;6.268;2024-03-08T13:04:00;12.30;99.90
59660;DHT22;45534;52.690;6.268;2024-03-08T13:06:28;12.50;99.90
59660;DHT22;45534;52.690;6.268;2024-03-08T13:08:54;12.60;99.90
59660;DHT22;45534;52.690;6.268;2024-03-08T13:11:22;12.60;99.90
59660;DHT22;45534;52.690;6.268;2024-03-08T13:13:49;12.90;99.90
59660;DHT22;45534;52.690;6.268;2024-03-08T13:16:15;13.00;99.90
59660;DHT22;45534;52.690;6.268;2024-03-08T13:18:43;12.90;99.90
59660;DHT22;45534;52.690;6.268;2024-03-08T13:21:09;12.90;99.90
59660;DHT22;45534;52.690;6.268;2024-03-08T13:23:37;12.70;98.60
59660;DHT22;45534;52.690;6.268;2024-03-08T13:26:06;12.50;99.10
59660;DHT22;45534;52.690;6.268;2024-03-08T13:28:32;12.50;99.60
59660;DHT22;45534;52.690;6.268;2024-03-08T13:31:03;12.70;99.90
59660;DHT22;45534;52.690;6.268;2024-03-08T13:33:35;13.00;99.00
59660;DHT22;45534;52.690;6.268;2024-03-08T13:36:06;13.10;98.80
59660;DHT22;45534;52.690;6.268;2024-03-08T13:38:38;13.30;98.70
59660;DHT22;45534;52.690;6.268;2024-03-08T13:41:04;13.40;98.60
59660;DHT22;45534;52.690;6.268;2024-03-08T13:43:30;13.50;97.80
59660;DHT22;45534;52.690;6.268;2024-03-08T13:45:59;13.40;97.10
59660;DHT22;45534;52.690;6.268;2024-03-08T13:48:25;13.30;97.00
59660;DHT22;45534;52.690;6.268;2024-03-08T13:50:51;13.10;96.50
59660;DHT22;45534;52.690;6.268;2024-03-08T13:53:17;13.10;96.80
59660;DHT22;45534;52.690;6.268;2024-03-08T13:55:42;13.20;96.80
59660;DHT22;45534;52.690;6.268;2024-03-08T13:58:08;13.40;97.30
59660;DHT22;45534;52.690;6.268;2024-03-08T14:00:36;13.80;97.20
59660;DHT22;45534;52.690;6.268;2024-03-08T14:03:02;14.00;97.10
59660;DHT22;45534;52.690;6.268;2024-03-08T14:05:38;14.10;96.50
59660;DHT22;45534;52.690;6.268;2024-03-08T14:08:08;13.90;95.30
59660;DHT22;45534;52.690;6.268;2024-03-08T14:10:34;13.60;95.10
59660;DHT22;45534;52.690;6.268;2024-03-08T14:13:03;13.40;95.40
59660;DHT22;45534;52.690;6.268;2024-03-08T14:15:31;13.60;95.80
59660;DHT22;45534;52.690;6.268;2024-03-08T14:17:57;13.80;95.70
59660;DHT22;45534;52.690;6.268;2024-03-08T14:20:23;13.90;95.70
59660;DHT22;45534;52.690;6.268;2024-03-08T14:22:55;13.90;95.10
59660;DHT22;45534;52.690;6.268;2024-03-08T14:25:21;13.80;95.00
59660;DHT22;45534;52.690;6.268;2024-03-08T14:27:49;13.70;94.80
59660;DHT22;45534;52.690;6.268;2024-03-08T14:30:15;13.60;94.60
59660;DHT22;45534;52.690;6.268;2024-03-08T14:33:01;13.60;95.10
59660;DHT22;45534;52.690;6.268;2024-03-08T14:35:27;13.70;95.20
59660;DHT22;45534;52.690;6.268;2024-03-08T14:37:58;13.80;94.80
59660;DHT22;45534;52.690;6.268;2024-03-08T14:40:27;13.80;95.00
59660;DHT22;45534;52.690;6.268;2024-03-08T14:42:53;14.00;95.10
59660;DHT22;45534;52.690;6.268;2024-03-08T14:45:19;14.00;94.50
59660;DHT22;45534;52.690;6.268;2024-03-08T14:47:48;13.80;94.30
59660;DHT22;45534;52.690;6.268;2024-03-08T14:50:18;13.80;94.60
59660;DHT22;45534;52.690;6.268;2024-03-08T14:52:44;13.80;94.30
59660;DHT22;45534;52.690;6.268;2024-03-08T14:55:17;13.80;94.60
59660;DHT22;45534;52.690;6.268;2024-03-08T14:57:45;13.90;94.70
59660;DHT22;45534;52.690;6.268;2024-03-08T15:00:12;14.10;94.90
59660;DHT22;45534;52.690;6.268;2024-03-08T15:02:55;14.20;94.80
59660;DHT22;45534;52.690;6.268;2024-03-08T15:05:22;14.20;94.30
59660;DHT22;45534;52.690;6.268;2024-03-08T15:07:52;14.10;94.60
59660;DHT22;45534;52.690;6.268;2024-03-08T15:10:19;14.00;93.30
59660;DHT22;45534;52.690;6.268;2024-03-08T15:12:48;14.20;93.80
59660;DHT22;45534;52.690;6.268;2024-03-08T15:15:14;14.30;94.30
59660;DHT22;45534;52.690;6.268;2024-03-08T15:17:44;14.30;93.90
59660;DHT22;45534;52.690;6.268;2024-03-08T15:20:13;14.00;93.60
59660;DHT22;45534;52.690;6.268;2024-03-08T15:22:53;14.00;93.90
59660;DHT22;45534;52.690;6.268;2024-03-08T15:25:21;13.90;93.80
59660;DHT22;45534;52.690;6.268;2024-03-08T15:27:54;13.70;93.40
59660;DHT22;45534;52.690;6.268;2024-03-08T15:30:23;13.50;93.30
59660;DHT22;45534;52.690;6.268;2024-03-08T15:32:52;13.30;93.60
59660;DHT22;45534;52.690;6.268;2024-03-08T15:35:28;13.20;93.10
59660;DHT22;45534;52.690;6.268;2024-03-08T15:37:54;13.30;93.50
59660;DHT22;45534;52.690;6.268;2024-03-08T15:40:23;13.20;93.50
59660;DHT22;45534;52.690;6.268;2024-03-08T15:45:20;13.00;93.70
59660;DHT22;45534;52.690;6.268;2024-03-08T15:47:46;13.00;93.70
59660;DHT22;45534;52.690;6.268;2024-03-08T15:50:12;12.70;93.80
59660;DHT22;45534;52.690;6.268;2024-03-08T15:52:39;12.50;94.20
59660;DHT22;45534;52.690;6.268;2024-03-08T15:55:07;12.50;94.20
59660;DHT22;45534;52.690;6.268;2024-03-08T15:57:33;12.60;94.10
59660;DHT22;45534;52.690;6.268;2024-03-08T15:59:59;12.70;94.30